createdAt,value
2022-10-18T00:01:07.021Z,8.53
2022-10-18T00:03:40.699Z,8.53
2022-10-18T00:06:09.397Z,8.53
2022-10-18T00:08:39.008Z,8.49
2022-10-18T00:11:07.764Z,8.45
2022-10-18T00:13:35.960Z,8.39
2022-10-18T00:16:09.848Z,8.32
2022-10-18T00:18:37.755Z,8.27
2022-10-18T00:21:14.683Z,8.22
2022-10-18T00:23:43.612Z,8.18
2022-10-18T00:26:30.724Z,8.16
2022-10-18T00:29:03.438Z,8.16
2022-10-18T00:31:36.292Z,8.18
2022-10-18T00:34:11.135Z,8.22
2022-10-18T00:36:39.258Z,8.24
2022-10-18T00:39:09.445Z,8.24
2022-10-18T00:41:38.116Z,8.24
2022-10-18T00:44:27.778Z,8.25
2022-10-18T00:47:08.895Z,8.24
2022-10-18T00:49:42.127Z,8.27
2022-10-18T00:52:35.208Z,8.29
2022-10-18T00:55:05.761Z,8.27
2022-10-18T00:57:34.474Z,8.30
2022-10-18T01:00:07.576Z,8.33
2022-10-18T01:02:41.159Z,8.37
2022-10-18T01:05:12.236Z,8.36
2022-10-18T01:08:09.003Z,8.34
2022-10-18T01:11:21.123Z,8.29
2022-10-18T01:14:39.430Z,8.25
2022-10-18T01:17:26.646Z,8.21
2022-10-18T01:20:28.394Z,8.17
2022-10-18T01:23:06.505Z,8.18
2022-10-18T01:25:43.286Z,8.16
2022-10-18T01:28:46.214Z,8.09
2022-10-18T01:31:34.357Z,8.01
2022-10-18T01:34:05.456Z,7.94
2022-10-18T01:36:37.994Z,7.87
2022-10-18T01:39:10.919Z,7.80
2022-10-18T01:41:41.395Z,7.74
2022-10-18T01:44:14.578Z,7.70
2022-10-18T01:46:44.195Z,7.68
2022-10-18T01:49:12.059Z,7.64
2022-10-18T01:51:40.105Z,7.62
2022-10-18T01:54:10.144Z,7.60
2022-10-18T01:56:43.288Z,7.60
2022-10-18T01:59:11.195Z,7.58
2022-10-18T02:01:53.149Z,7.56
2022-10-18T02:04:40.938Z,7.53
2022-10-18T02:07:21.605Z,7.49
2022-10-18T02:10:06.079Z,7.48
2022-10-18T02:12:34.936Z,7.47
2022-10-18T02:15:07.310Z,7.45
2022-10-18T02:17:35.787Z,7.44
2022-10-18T02:20:06.492Z,7.43
2022-10-18T02:22:36.539Z,7.43
2022-10-18T02:25:10.781Z,7.45
2022-10-18T02:27:38.673Z,7.44
2022-10-18T02:30:07.348Z,7.43
2022-10-18T02:32:41.144Z,7.42
2022-10-18T02:35:18.016Z,7.43
2022-10-18T02:37:48.862Z,7.46
2022-10-18T02:40:18.004Z,7.48
2022-10-18T02:42:53.648Z,7.47
2022-10-18T02:45:21.778Z,7.50
2022-10-18T02:47:49.662Z,7.51
2022-10-18T02:50:18.272Z,7.52
2022-10-18T02:52:46.197Z,7.52
2022-10-18T02:55:14.026Z,7.51
2022-10-18T02:57:41.905Z,7.53
2022-10-18T03:00:10.718Z,7.54
2022-10-18T03:02:38.512Z,7.55
2022-10-18T03:05:06.760Z,7.58
2022-10-18T03:07:34.950Z,7.60
2022-10-18T03:10:03.258Z,7.63
2022-10-18T03:12:31.066Z,7.68
2022-10-18T03:14:59.010Z,7.71
2022-10-18T03:17:27.052Z,7.74
2022-10-18T03:19:54.883Z,7.75
2022-10-18T03:22:22.954Z,7.74
2022-10-18T03:24:50.914Z,7.70
2022-10-18T03:27:18.781Z,7.66
2022-10-18T03:29:46.761Z,7.62
2022-10-18T03:32:14.745Z,7.56
2022-10-18T03:34:42.597Z,7.50
2022-10-18T03:37:10.471Z,7.44
2022-10-18T03:39:38.270Z,7.41
2022-10-18T03:42:06.145Z,7.38
2022-10-18T03:44:33.934Z,7.35
2022-10-18T03:47:01.925Z,7.38
2022-10-18T03:49:29.841Z,7.43
2022-10-18T03:51:57.725Z,7.44
2022-10-18T03:54:25.566Z,7.41
2022-10-18T03:56:53.459Z,7.41
2022-10-18T03:59:22.685Z,7.40
2022-10-18T04:01:50.792Z,7.38
2022-10-18T04:04:18.873Z,7.34
2022-10-18T04:06:46.732Z,7.35
2022-10-18T04:09:14.741Z,7.34
2022-10-18T04:11:42.651Z,7.29
2022-10-18T04:14:10.499Z,7.24
2022-10-18T04:16:38.442Z,7.22
2022-10-18T04:19:06.256Z,7.25
2022-10-18T04:21:34.108Z,7.26
2022-10-18T04:24:01.953Z,7.28
2022-10-18T04:26:29.846Z,7.28
2022-10-18T04:28:57.903Z,7.27
2022-10-18T04:31:25.824Z,7.27
2022-10-18T04:33:53.937Z,7.28
2022-10-18T04:36:21.935Z,7.28
2022-10-18T04:38:49.753Z,7.28
2022-10-18T04:41:17.640Z,7.29
2022-10-18T04:46:18.505Z,7.26
2022-10-18T04:48:46.457Z,7.23
2022-10-18T04:51:14.320Z,7.23
2022-10-18T04:53:42.195Z,7.23
2022-10-18T04:56:10.073Z,7.24
2022-10-18T04:58:37.947Z,7.28
2022-10-18T05:01:08.586Z,7.29
2022-10-18T05:03:36.470Z,7.29
2022-10-18T05:06:05.508Z,7.32
2022-10-18T05:08:35.275Z,7.35
2022-10-18T05:11:04.656Z,7.39
2022-10-18T05:13:32.606Z,7.42
2022-10-18T05:16:00.883Z,7.45
2022-10-18T05:18:28.842Z,7.47
2022-10-18T05:20:57.008Z,7.50
2022-10-18T05:23:25.204Z,7.56
2022-10-18T05:25:54.636Z,7.64
2022-10-18T05:28:41.133Z,7.68
2022-10-18T05:31:10.314Z,7.70
2022-10-18T05:33:38.455Z,7.69
2022-10-18T05:36:06.720Z,7.70
2022-10-18T05:41:07.565Z,7.76
2022-10-18T05:43:35.515Z,7.79
2022-10-18T05:46:04.817Z,7.81
2022-10-18T05:48:32.659Z,7.81
2022-10-18T05:51:01.018Z,7.81
2022-10-18T05:53:36.657Z,7.82
2022-10-18T05:56:05.694Z,7.82
2022-10-18T05:58:34.118Z,7.82
2022-10-18T06:01:02.472Z,7.83
2022-10-18T06:03:31.035Z,7.84
2022-10-18T06:06:04.505Z,7.85
2022-10-18T06:08:33.285Z,7.87
2022-10-18T06:11:06.912Z,7.88
2022-10-18T06:13:34.909Z,7.93
2022-10-18T06:16:02.771Z,7.99
2022-10-18T06:18:30.675Z,8.03
2022-10-18T06:20:59.614Z,8.06
2022-10-18T06:23:28.429Z,8.11
2022-10-18T06:26:05.057Z,8.18
2022-10-18T06:28:35.160Z,8.21
2022-10-18T06:31:04.165Z,8.25
2022-10-18T06:33:33.887Z,8.29
2022-10-18T06:36:05.077Z,8.32
2022-10-18T06:38:33.160Z,8.36
2022-10-18T06:41:01.061Z,8.45
2022-10-18T06:43:29.061Z,8.53
2022-10-18T06:45:56.962Z,8.62
2022-10-18T06:48:25.016Z,8.71
2022-10-18T06:50:58.048Z,8.82
2022-10-18T06:53:28.034Z,8.95
2022-10-18T06:56:03.964Z,9.08
2022-10-18T06:58:32.722Z,9.20
2022-10-18T07:01:06.911Z,9.31
2022-10-18T07:03:35.474Z,9.43
2022-10-18T07:06:04.946Z,9.57
2022-10-18T07:08:33.566Z,9.71
2022-10-18T07:11:02.052Z,9.86
2022-10-18T07:13:33.225Z,10.01
2022-10-18T07:16:03.678Z,10.16
2022-10-18T07:18:34.367Z,10.33
2022-10-18T07:21:04.285Z,10.50
2022-10-18T07:23:34.243Z,10.68
2022-10-18T07:26:04.576Z,10.86
2022-10-18T07:28:32.442Z,11.06
2022-10-18T07:31:08.833Z,11.27
2022-10-18T07:33:38.222Z,11.48
2022-10-18T07:36:08.908Z,11.69
2022-10-18T07:38:37.104Z,11.89
2022-10-18T07:41:07.120Z,12.10
2022-10-18T07:43:36.044Z,12.31
2022-10-18T07:46:05.669Z,12.53
2022-10-18T07:48:33.534Z,12.74
2022-10-18T07:51:02.262Z,12.94
2022-10-18T07:53:30.779Z,13.13
2022-10-18T07:56:00.760Z,13.28
2022-10-18T07:58:32.465Z,13.42
2022-10-18T08:01:08.654Z,13.53
2022-10-18T08:03:37.269Z,13.65
2022-10-18T08:06:08.867Z,13.74
2022-10-18T08:08:38.780Z,13.84
2022-10-18T08:11:18.276Z,13.98
2022-10-18T08:13:46.655Z,14.13
2022-10-18T08:16:17.587Z,14.29
2022-10-18T08:18:45.677Z,14.44
2022-10-18T08:21:18.105Z,14.60
2022-10-18T08:23:46.813Z,14.79
2022-10-18T08:26:17.261Z,14.95
2022-10-18T08:28:53.673Z,15.08
2022-10-18T08:31:28.450Z,15.20
2022-10-18T08:34:00.151Z,15.33
2022-10-18T08:36:28.419Z,15.43
2022-10-18T08:38:56.297Z,15.54
2022-10-18T08:41:48.340Z,15.68
2022-10-18T08:44:26.454Z,15.81
2022-10-18T08:47:14.931Z,15.95
2022-10-18T08:49:47.034Z,16.10
2022-10-18T08:55:36.651Z,16.40
2022-10-18T08:58:21.567Z,16.58
2022-10-18T09:01:39.499Z,16.69
2022-10-18T09:04:15.965Z,16.84
2022-10-18T09:07:02.087Z,17.00
2022-10-18T09:09:54.572Z,17.20
2022-10-18T09:12:43.977Z,17.42
2022-10-18T09:15:16.033Z,17.60
2022-10-18T09:18:08.301Z,17.79
2022-10-18T09:20:51.092Z,17.98
2022-10-18T09:23:20.513Z,18.12
2022-10-18T09:25:53.132Z,18.25
2022-10-18T09:28:42.748Z,18.44
2022-10-18T09:31:17.945Z,18.68
2022-10-18T09:33:50.002Z,18.90
2022-10-18T09:36:24.558Z,19.07
2022-10-18T09:39:00.494Z,19.34
2022-10-18T09:41:31.255Z,19.68
2022-10-18T09:44:06.843Z,20.03
2022-10-18T09:46:40.924Z,20.42
2022-10-18T09:49:18.756Z,20.80
2022-10-18T09:51:49.577Z,21.22
2022-10-18T09:54:45.133Z,21.62
2022-10-18T09:57:21.714Z,22.07
2022-10-18T09:59:50.907Z,22.47
2022-10-18T10:02:23.781Z,22.71
2022-10-18T10:04:54.270Z,22.85
2022-10-18T10:07:35.053Z,23.17
2022-10-18T10:10:08.697Z,23.60
2022-10-18T10:12:39.202Z,23.88
2022-10-18T10:15:31.293Z,23.92
2022-10-18T10:18:05.158Z,24.05
2022-10-18T10:20:45.345Z,24.49
2022-10-18T10:23:19.677Z,24.98
2022-10-18T10:26:00.908Z,25.34
2022-10-18T10:28:41.027Z,25.45
2022-10-18T10:31:31.321Z,25.46
2022-10-18T10:34:01.884Z,25.51
2022-10-18T10:36:30.856Z,25.87
2022-10-18T10:39:18.797Z,26.04
2022-10-18T10:41:55.835Z,26.45
2022-10-18T10:44:27.544Z,26.54
2022-10-18T10:46:56.344Z,26.67
2022-10-18T10:49:40.231Z,26.79
2022-10-18T10:52:28.628Z,27.22
2022-10-18T10:55:16.955Z,27.92
2022-10-18T10:57:48.613Z,28.31
2022-10-18T11:00:39.763Z,28.87
2022-10-18T11:03:33.802Z,29.51
2022-10-18T11:06:02.104Z,30.18
2022-10-18T11:08:41.729Z,30.48
2022-10-18T11:11:32.586Z,30.69
2022-10-18T11:14:25.139Z,30.98
2022-10-18T11:17:13.054Z,31.36
2022-10-18T11:20:03.503Z,31.86
2022-10-18T11:22:38.834Z,32.31
2022-10-18T11:25:12.563Z,32.46
2022-10-18T11:28:00.421Z,32.93
2022-10-18T11:30:37.863Z,33.46
2022-10-18T11:33:56.220Z,33.78
2022-10-18T11:36:33.970Z,34.12
2022-10-18T11:39:27.344Z,34.60
2022-10-18T11:42:28.398Z,34.92
2022-10-18T11:45:11.114Z,35.00
2022-10-18T11:47:52.210Z,35.23
2022-10-18T11:50:34.797Z,35.18
2022-10-18T11:53:08.442Z,35.25
2022-10-18T11:56:00.722Z,35.63
2022-10-18T11:58:46.567Z,35.59
2022-10-18T12:01:28.503Z,35.51
2022-10-18T12:03:56.808Z,35.78
2022-10-18T12:06:30.808Z,35.60
2022-10-18T12:09:15.388Z,35.47
2022-10-18T12:12:01.519Z,35.65
2022-10-18T12:15:17.177Z,35.69
2022-10-18T12:17:54.031Z,35.74
2022-10-18T12:20:30.216Z,35.90
2022-10-18T12:23:01.345Z,35.90
2022-10-18T12:25:32.625Z,35.70
2022-10-18T12:28:23.647Z,35.76
2022-10-18T12:31:14.704Z,35.77
2022-10-18T12:33:48.225Z,36.00
2022-10-18T12:36:22.222Z,35.64
2022-10-18T12:38:57.274Z,35.57
2022-10-18T12:41:28.575Z,35.33
2022-10-18T12:44:02.745Z,35.40
2022-10-18T12:46:48.574Z,35.48
2022-10-18T12:49:24.449Z,35.48
2022-10-18T12:51:59.663Z,35.09
2022-10-18T12:54:33.271Z,35.25
2022-10-18T12:57:02.828Z,34.91
2022-10-18T12:59:30.604Z,35.04
2022-10-18T13:02:20.716Z,35.14
2022-10-18T13:04:49.317Z,35.35
2022-10-18T13:07:30.638Z,35.61
2022-10-18T13:10:10.589Z,35.45
2022-10-18T13:12:47.421Z,35.33
2022-10-18T13:15:46.558Z,35.21
2022-10-18T13:18:26.749Z,34.84
2022-10-18T13:21:29.874Z,34.34
2022-10-18T13:24:24.287Z,34.34
2022-10-18T13:27:35.077Z,33.84
2022-10-18T13:30:18.543Z,33.32
2022-10-18T13:32:46.486Z,33.36
2022-10-18T13:35:55.217Z,33.34
2022-10-18T13:38:47.798Z,33.84
2022-10-18T13:41:40.577Z,33.96
2022-10-18T13:44:26.011Z,33.95
2022-10-18T13:46:56.848Z,34.04
2022-10-18T13:49:39.807Z,33.95
2022-10-18T13:52:37.852Z,33.78
2022-10-18T13:55:32.654Z,33.32
2022-10-18T13:58:08.385Z,32.82
2022-10-18T14:00:49.466Z,31.96
2022-10-18T14:03:56.808Z,31.24
2022-10-18T14:06:33.546Z,30.04
2022-10-18T14:09:25.977Z,29.14
2022-10-18T14:12:16.550Z,28.22
2022-10-18T14:14:50.331Z,27.66
2022-10-18T14:17:35.947Z,27.37
2022-10-18T14:20:27.338Z,26.90
2022-10-18T14:23:16.009Z,26.40
2022-10-18T14:25:44.443Z,26.01
2022-10-18T14:28:21.733Z,25.68
2022-10-18T14:31:02.090Z,25.33
2022-10-18T14:33:41.657Z,25.00
2022-10-18T14:36:16.284Z,24.66
2022-10-18T14:39:02.309Z,24.36
2022-10-18T14:41:31.276Z,24.06
2022-10-18T14:44:14.478Z,23.64
2022-10-18T14:47:03.285Z,23.31
2022-10-18T14:49:31.238Z,22.93
2022-10-18T14:52:00.503Z,22.63
2022-10-18T14:54:32.907Z,22.40
2022-10-18T14:57:02.191Z,22.21
2022-10-18T14:59:33.894Z,21.98
2022-10-18T15:02:10.266Z,21.77
2022-10-18T15:04:38.167Z,21.67
2022-10-18T15:07:14.608Z,21.57
2022-10-18T15:09:45.148Z,21.48
2022-10-18T15:12:15.206Z,21.39
2022-10-18T15:14:43.822Z,21.32
2022-10-18T15:17:24.677Z,21.27
2022-10-18T15:20:20.872Z,21.11
2022-10-18T15:22:49.139Z,20.89
2022-10-18T15:25:35.939Z,20.69
2022-10-18T15:28:03.766Z,20.48
2022-10-18T15:30:39.315Z,20.22
2022-10-18T15:33:10.980Z,20.07
2022-10-18T15:35:39.158Z,19.89
2022-10-18T15:38:33.267Z,19.72
2022-10-18T15:41:01.103Z,19.50
2022-10-18T15:43:28.951Z,19.31
2022-10-18T15:46:05.144Z,19.17
2022-10-18T15:48:38.548Z,19.03
2022-10-18T15:51:33.976Z,18.88
2022-10-18T15:54:01.794Z,18.70
2022-10-18T15:56:32.704Z,18.56
2022-10-18T15:59:04.506Z,18.40
2022-10-18T16:01:36.804Z,18.26
2022-10-18T16:04:09.570Z,18.15
2022-10-18T16:06:38.702Z,18.08
2022-10-18T16:09:06.664Z,17.96
2022-10-18T16:11:34.538Z,17.84
2022-10-18T16:14:02.444Z,17.72
2022-10-18T16:16:30.402Z,17.63
2022-10-18T16:18:58.257Z,17.57
2022-10-18T16:21:29.059Z,17.53
2022-10-18T16:23:57.164Z,17.47
2022-10-18T16:26:26.068Z,17.34
2022-10-18T16:28:55.073Z,17.20
2022-10-18T16:31:25.514Z,17.06
2022-10-18T16:33:54.878Z,16.98
2022-10-18T16:36:25.658Z,16.91
2022-10-18T16:38:55.068Z,16.79
2022-10-18T16:41:24.649Z,16.65
2022-10-18T16:43:52.679Z,16.53
2022-10-18T16:46:23.301Z,16.38
2022-10-18T16:48:51.727Z,16.27
2022-10-18T16:51:20.329Z,16.19
2022-10-18T16:53:48.603Z,16.11
2022-10-18T16:56:22.560Z,16.04
2022-10-18T16:58:50.497Z,15.96
2022-10-18T17:01:20.382Z,15.89
2022-10-18T17:03:48.645Z,15.79
2022-10-18T17:06:20.652Z,15.69
2022-10-18T17:08:49.302Z,15.58
2022-10-18T17:11:18.457Z,15.51
2022-10-18T17:13:46.713Z,15.42
2022-10-18T17:16:32.047Z,15.31
2022-10-18T17:19:02.671Z,15.22
2022-10-18T17:21:33.428Z,15.15
2022-10-18T17:24:03.130Z,15.05
2022-10-18T17:26:31.563Z,14.99
2022-10-18T17:29:01.853Z,14.94
2022-10-18T17:31:30.958Z,14.87
2022-10-18T17:34:01.736Z,14.80
2022-10-18T17:36:31.854Z,14.74
2022-10-18T17:38:59.871Z,14.67
2022-10-18T17:41:28.098Z,14.59
2022-10-18T17:43:56.424Z,14.51
2022-10-18T17:46:24.437Z,14.43
2022-10-18T17:48:53.503Z,14.34
2022-10-18T17:51:22.697Z,14.25
2022-10-18T17:53:50.690Z,14.16
2022-10-18T17:56:18.649Z,14.11
2022-10-18T17:58:50.594Z,14.07
2022-10-18T18:01:21.869Z,14.02
2022-10-18T18:03:50.845Z,13.97
2022-10-18T18:06:30.998Z,13.93
2022-10-18T18:09:10.667Z,13.93
2022-10-18T18:11:40.988Z,13.86
2022-10-18T18:14:10.254Z,13.79
2022-10-18T18:16:41.309Z,13.68
2022-10-18T18:19:10.655Z,13.60
2022-10-18T18:21:39.877Z,13.51
2022-10-18T18:24:10.894Z,13.41
2022-10-18T18:26:40.333Z,13.35
2022-10-18T18:29:08.428Z,13.29
2022-10-18T18:31:40.001Z,13.23
2022-10-18T18:34:10.526Z,13.17
2022-10-18T18:36:38.636Z,13.11
2022-10-18T18:39:08.900Z,13.07
2022-10-18T18:41:38.576Z,13.02
2022-10-18T18:44:06.859Z,12.94
2022-10-18T18:46:39.508Z,12.86
2022-10-18T18:49:08.263Z,12.80
2022-10-18T18:51:38.482Z,12.74
2022-10-18T18:54:11.443Z,12.71
2022-10-18T18:56:40.147Z,12.66
2022-10-18T18:59:08.803Z,12.59
2022-10-18T19:01:38.077Z,12.53
2022-10-18T19:04:08.005Z,12.48
2022-10-18T19:06:38.700Z,12.45
2022-10-18T19:09:18.557Z,12.44
2022-10-18T19:11:48.387Z,12.40
2022-10-18T19:14:16.855Z,12.35
2022-10-18T19:16:50.602Z,12.32
2022-10-18T19:19:20.897Z,12.25
2022-10-18T19:21:52.323Z,12.19
2022-10-18T19:24:21.637Z,12.13
2022-10-18T19:26:52.953Z,12.11
2022-10-18T19:29:27.206Z,12.09
2022-10-18T19:31:58.207Z,12.04
2022-10-18T19:34:28.721Z,12.01
2022-10-18T19:36:57.095Z,11.99
2022-10-18T19:39:30.516Z,11.94
2022-10-18T19:42:00.684Z,11.89
2022-10-18T19:44:31.138Z,11.80
2022-10-18T19:46:59.526Z,11.72
2022-10-18T19:49:28.807Z,11.65
2022-10-18T19:51:57.500Z,11.59
2022-10-18T19:54:26.169Z,11.53
2022-10-18T19:56:54.517Z,11.49
2022-10-18T19:59:23.316Z,11.44
2022-10-18T20:01:51.258Z,11.40
2022-10-18T20:04:19.162Z,11.35
2022-10-18T20:06:47.579Z,11.31
2022-10-18T20:09:19.399Z,11.29
2022-10-18T20:11:48.703Z,11.26
2022-10-18T20:14:16.476Z,11.24
2022-10-18T20:16:44.292Z,11.21
2022-10-18T20:19:12.361Z,11.15
2022-10-18T20:21:40.370Z,11.09
2022-10-18T20:24:09.562Z,11.04
2022-10-18T20:26:37.778Z,11.00
2022-10-18T20:29:07.630Z,10.95
2022-10-18T20:31:38.536Z,10.91
2022-10-18T20:34:11.448Z,10.88
2022-10-18T20:36:40.956Z,10.84
2022-10-18T20:39:09.687Z,10.82
2022-10-18T20:41:41.052Z,10.81
2022-10-18T20:44:14.610Z,10.77
2022-10-18T20:46:43.976Z,10.75
2022-10-18T20:49:16.001Z,10.73
2022-10-18T20:51:43.963Z,10.70
2022-10-18T20:54:12.304Z,10.68
2022-10-18T20:56:40.186Z,10.67
2022-10-18T20:59:09.997Z,10.63
2022-10-18T21:01:39.343Z,10.63
2022-10-18T21:04:10.042Z,10.64
2022-10-18T21:06:41.117Z,10.64
2022-10-18T21:09:19.720Z,10.66
2022-10-18T21:11:49.969Z,10.64
2022-10-18T21:14:19.864Z,10.63
2022-10-18T21:16:48.802Z,10.64
2022-10-18T21:19:18.797Z,10.61
2022-10-18T21:21:50.308Z,10.61
2022-10-18T21:24:19.897Z,10.61
2022-10-18T21:26:48.248Z,10.60
2022-10-18T21:29:21.532Z,10.58
2022-10-18T21:31:54.134Z,10.56
2022-10-18T21:34:22.113Z,10.53
2022-10-18T21:36:49.889Z,10.51
2022-10-18T21:41:55.619Z,10.55
2022-10-18T21:44:23.674Z,10.57
2022-10-18T21:46:51.734Z,10.53
2022-10-18T21:49:19.583Z,10.47
2022-10-18T21:51:47.485Z,10.44
2022-10-18T21:54:16.687Z,10.41
2022-10-18T21:56:44.575Z,10.37
2022-10-18T21:59:13.497Z,10.34
2022-10-18T22:01:43.573Z,10.29
2022-10-18T22:04:22.734Z,10.26
2022-10-18T22:06:51.057Z,10.20
2022-10-18T22:09:19.764Z,10.15
2022-10-18T22:11:51.312Z,10.09
2022-10-18T22:14:19.302Z,10.02
2022-10-18T22:16:47.061Z,9.97
2022-10-18T22:19:14.983Z,9.93
2022-10-18T22:21:42.811Z,9.87
2022-10-18T22:24:10.589Z,9.79
2022-10-18T22:26:41.088Z,9.76
2022-10-18T22:29:13.154Z,9.75
2022-10-18T22:31:44.662Z,9.74
2022-10-18T22:34:15.692Z,9.69
2022-10-18T22:36:43.768Z,9.64
2022-10-18T22:39:14.355Z,9.62
2022-10-18T22:41:42.800Z,9.56
2022-10-18T22:44:12.843Z,9.49
2022-10-18T22:46:42.015Z,9.43
2022-10-18T22:49:11.030Z,9.39
2022-10-18T22:51:40.130Z,9.37
2022-10-18T22:54:08.339Z,9.38
2022-10-18T22:56:36.234Z,9.37
2022-10-18T22:59:04.097Z,9.37
2022-10-18T23:01:31.901Z,9.36
2022-10-18T23:04:00.642Z,9.34
2022-10-18T23:06:29.713Z,9.33
2022-10-18T23:09:00.638Z,9.27
2022-10-18T23:11:29.282Z,9.16
2022-10-18T23:13:57.183Z,9.08
2022-10-18T23:16:25.291Z,9.02
2022-10-18T23:18:55.137Z,8.95
2022-10-18T23:21:25.261Z,8.92
2022-10-18T23:23:54.020Z,8.89
2022-10-18T23:26:23.879Z,8.88
2022-10-18T23:28:53.590Z,8.89
2022-10-18T23:31:26.772Z,8.86
2022-10-18T23:33:56.781Z,8.85
2022-10-18T23:36:25.450Z,8.86
2022-10-18T23:38:54.520Z,8.88
2022-10-18T23:41:23.205Z,8.88
2022-10-18T23:43:51.588Z,8.85
2022-10-18T23:46:19.867Z,8.84
2022-10-18T23:48:48.417Z,8.83
2022-10-18T23:51:17.399Z,8.81
2022-10-18T23:53:45.320Z,8.79
2022-10-18T23:56:15.512Z,8.78
2022-10-18T23:58:44.706Z,8.80
